FACV

Calvinia Airport

Calvinia, South Africa
METAR FACV 200619Z 08004KT CAVOK 21/09 Q1017
Observed Flight Rules
Feb-20 @ 06:19 UTC (51 minutes ago) Visual Flight Rules
Wind Visibility Clouds
80° at 4 knots 10,000+ meters
  • Clear skies
Temperatures Readings
Current 21°C / 70°F
Dewpoint 9°C / 48°F
Humidity 46%
Altimeter 30.03" Hg
Pressure 1017 hPa
Elevation 977
METAR FACV 200619Z 08004KT CAVOK 21/09 Q1017
Observed Flight Rules
Feb-20 @ 06:19 UTC
(51 minutes ago)
VFR
Wind Visibility
80° at 4 knots 10,000+ meters
Clouds
  • Clear skies
Temperature Dewpoint
21°C / 70°F 9°C / 48°F
Humidity Altimeter Pressure
46% 30.03" Hg 1017 hPa